Etusivu
METAR-TAF:

METAR-TAF

Lentoasemat :

Hillsdale Municipal Airport

Hillsdale, Michigan, Yhdysvallat

Leveyspiiri: 41-55-17N, Pituuspiiri: 084-35-09W, korkeus merenpinnasta: 360 m

Tämänhetkinen sää

Tämä raportti tehtiin 8 minuuttia sitten, kello 05.15 UTC
Tuuli 15 kn lännestä/lounaasta puuskistuen 23 kn:hen
Lämpötila -9°C
Kosteus 79%
Ilmanpaine 1010 hPa
Näkyvyys: 11.3 km
Pilvistä 1700 ft:n korkeudessa
heikkoa lumisadetta

METAR: KJYM 190515Z AUTO 25015G23KT 7SM -SN OVC017 M09/M12 A2982 RMK AO2 T10861118

Aika: 00:23 (05:23 UTC)


TAF: puuttuu

Säähavainnot ja -ennusteet yli 4000 lentoasemalta (METAR- ja TAF-raportit).

Käytössä olevat sääasemat on merkitty karttaan keltaisilla ja punaisilla pisteillä.

Aseta hiiri pisteen päälle nähdäksesi sääaseman nimen.

Klikkaa sitten nähdäksesi säähavainnot ja -ennusteet.

Kartan vaihtaminen: klikkaa mustalla rastilla varustettuja vihreitä pisteitä, niin voit zoomata sisään; viivalla varustettua vihreää pistettä, niin voit zoomata ulos tai vihreitä nuolia, niin pääset viereisille kartoille.


METAR-TAF: